RYR53J LEPA-LIMC
Flight info
| Callsign | RYR53J |
|---|---|
| Flight time | 1h 30m |
| Altitude | 34000 |
| Route | ISTE4A ISTER DCT LUNOR DCT NESUL DCT NEGAT DCT OMEDA DCT RAPUR DCT TORTU DCT ANAKI P860 DEVOX DEVO3E |
| Aircraft | A320/M-SDE3FGHIRWY/LB1 |
Departure
| Time | 2026-05-05 18:32 |
|---|---|
| Airport | Palma de Mallorca Airport (LEPA) |
Arrival
| Time | 2026-05-05 20:03 |
|---|---|
| Airport | Milan Malpensa International Airport (LIMC) |
| Time | Latitude | Longitude | Altitude | Speed | Heading |
|---|---|---|---|---|---|
| 2026-05-05 18:13 | 39.55019 | 2.73489 | 36 ft | 0 kts | 165° |
| 2026-05-05 18:25 | 39.55023 | 2.73488 | 38 ft | 2 kts | 165° |
| 2026-05-05 18:25 | 39.55033 | 2.73484 | 36 ft | 2 kts | 167° |
| 2026-05-05 18:25 | 39.55052 | 2.73479 | 37 ft | 2 kts | 171° |
| 2026-05-05 18:25 | 39.55066 | 2.73474 | 38 ft | 2 kts | 96° |
| 2026-05-05 18:26 | 39.55067 | 2.73465 | 34 ft | 0 kts | 43° |
| 2026-05-05 18:27 | 39.55113 | 2.73550 | 38 ft | 16 kts | 59° |
| 2026-05-05 18:28 | 39.55209 | 2.73605 | 38 ft | 14 kts | 324° |
| 2026-05-05 18:28 | 39.55299 | 2.73540 | 38 ft | 16 kts | 329° |
| 2026-05-05 18:28 | 39.55397 | 2.73463 | 38 ft | 16 kts | 330° |
| 2026-05-05 18:29 | 39.55474 | 2.73501 | 38 ft | 13 kts | 53° |
| 2026-05-05 18:29 | 39.55554 | 2.73547 | 38 ft | 15 kts | 346° |
| 2026-05-05 18:29 | 39.55653 | 2.73520 | 38 ft | 15 kts | 22° |
| 2026-05-05 18:29 | 39.55718 | 2.73633 | 38 ft | 17 kts | 60° |
| 2026-05-05 18:30 | 39.55780 | 2.73768 | 38 ft | 18 kts | 58° |
| 2026-05-05 18:30 | 39.55848 | 2.73910 | 38 ft | 19 kts | 59° |
| 2026-05-05 18:30 | 39.55921 | 2.74068 | 38 ft | 21 kts | 59° |
| 2026-05-05 18:30 | 39.55994 | 2.74223 | 38 ft | 18 kts | 52° |
| 2026-05-05 18:31 | 39.56083 | 2.74297 | 37 ft | 13 kts | 27° |
| 2026-05-05 18:31 | 39.56173 | 2.74347 | 38 ft | 16 kts | 4° |
| 2026-05-05 18:31 | 39.56221 | 2.74251 | 38 ft | 13 kts | 242° |
| 2026-05-05 18:31 | 39.56209 | 2.74227 | 37 ft | 8 kts | 237° |
| 2026-05-05 18:32 | 39.56056 | 2.73909 | 38 ft | 76 kts | 238° |
| 2026-05-05 18:32 | 39.55676 | 2.73111 | 37 ft | 130 kts | 239° |
| 2026-05-05 18:32 | 39.55141 | 2.71948 | 130 ft | 162 kts | 240° |
| 2026-05-05 18:32 | 39.54615 | 2.70690 | 789 ft | 159 kts | 242° |
| 2026-05-05 18:33 | 39.54058 | 2.69450 | 1476 ft | 159 kts | 238° |
| 2026-05-05 18:33 | 39.53458 | 2.68219 | 1998 ft | 168 kts | 239° |
| 2026-05-05 18:33 | 39.52793 | 2.66856 | 2239 ft | 191 kts | 239° |
| 2026-05-05 18:33 | 39.52043 | 2.65307 | 2539 ft | 212 kts | 239° |
| 2026-05-05 18:34 | 39.51262 | 2.63689 | 3369 ft | 211 kts | 240° |
| 2026-05-05 18:34 | 39.50487 | 2.62081 | 4206 ft | 211 kts | 240° |
| 2026-05-05 18:34 | 39.49525 | 2.60617 | 4879 ft | 225 kts | 219° |
| 2026-05-05 18:34 | 39.47980 | 2.59871 | 5244 ft | 257 kts | 185° |
| 2026-05-05 18:35 | 39.46186 | 2.60494 | 5809 ft | 281 kts | 149° |
| 2026-05-05 18:35 | 39.44883 | 2.62413 | 6560 ft | 293 kts | 115° |
| 2026-05-05 18:35 | 39.44363 | 2.64982 | 7361 ft | 299 kts | 96° |
| 2026-05-05 18:35 | 39.44254 | 2.67676 | 8182 ft | 303 kts | 90° |
| 2026-05-05 18:36 | 39.44316 | 2.70420 | 8982 ft | 307 kts | 88° |
| 2026-05-05 18:36 | 39.44416 | 2.73196 | 9780 ft | 312 kts | 89° |
| 2026-05-05 18:36 | 39.44478 | 2.76043 | 10285 ft | 326 kts | 91° |
| 2026-05-05 18:36 | 39.44474 | 2.79080 | 10515 ft | 348 kts | 93° |
| 2026-05-05 18:37 | 39.44411 | 2.82256 | 11020 ft | 357 kts | 94° |
| 2026-05-05 18:37 | 39.44307 | 2.85489 | 11665 ft | 362 kts | 95° |
| 2026-05-05 18:37 | 39.44181 | 2.88763 | 12333 ft | 367 kts | 96° |
| 2026-05-05 18:37 | 39.44209 | 2.92087 | 12979 ft | 375 kts | 83° |
| 2026-05-05 18:38 | 39.44971 | 2.95345 | 13622 ft | 384 kts | 68° |
| 2026-05-05 18:38 | 39.46020 | 2.98542 | 14194 ft | 389 kts | 68° |
| 2026-05-05 18:38 | 39.47100 | 3.01773 | 14768 ft | 393 kts | 67° |
| 2026-05-05 18:38 | 39.48200 | 3.05032 | 15343 ft | 397 kts | 67° |
| 2026-05-05 18:39 | 39.49311 | 3.08324 | 15935 ft | 400 kts | 67° |
| 2026-05-05 18:39 | 39.50425 | 3.11634 | 16533 ft | 403 kts | 67° |
| 2026-05-05 18:39 | 39.51546 | 3.14981 | 17126 ft | 407 kts | 67° |
| 2026-05-05 18:39 | 39.52674 | 3.18363 | 17711 ft | 411 kts | 67° |
| 2026-05-05 18:40 | 39.53809 | 3.21777 | 18284 ft | 415 kts | 67° |
| 2026-05-05 18:40 | 39.54955 | 3.25233 | 18775 ft | 420 kts | 67° |
| 2026-05-05 18:40 | 39.56110 | 3.28725 | 19282 ft | 424 kts | 67° |
| 2026-05-05 18:40 | 39.57274 | 3.32253 | 19827 ft | 427 kts | 67° |
| 2026-05-05 18:41 | 39.58448 | 3.35812 | 20351 ft | 431 kts | 67° |
| 2026-05-05 18:41 | 39.59631 | 3.39398 | 20874 ft | 435 kts | 67° |
| 2026-05-05 18:41 | 39.60824 | 3.43015 | 21372 ft | 438 kts | 67° |
| 2026-05-05 18:41 | 39.62028 | 3.46670 | 21873 ft | 442 kts | 67° |
| 2026-05-05 18:42 | 39.63239 | 3.50346 | 22381 ft | 445 kts | 67° |
| 2026-05-05 18:42 | 39.64459 | 3.54056 | 22879 ft | 449 kts | 67° |
| 2026-05-05 18:42 | 39.65689 | 3.57801 | 23387 ft | 453 kts | 67° |
| 2026-05-05 18:42 | 39.66927 | 3.61575 | 23807 ft | 456 kts | 67° |
| 2026-05-05 18:43 | 39.68168 | 3.65374 | 24223 ft | 459 kts | 67° |
| 2026-05-05 18:43 | 39.69419 | 3.69211 | 24615 ft | 463 kts | 67° |
| 2026-05-05 18:43 | 39.70676 | 3.73071 | 25005 ft | 466 kts | 68° |
| 2026-05-05 18:43 | 39.71940 | 3.76953 | 25388 ft | 469 kts | 68° |
| 2026-05-05 18:44 | 39.73215 | 3.80870 | 25762 ft | 472 kts | 68° |
| 2026-05-05 18:44 | 39.74497 | 3.84810 | 26158 ft | 475 kts | 68° |
| 2026-05-05 18:44 | 39.75785 | 3.88776 | 26519 ft | 478 kts | 68° |
| 2026-05-05 18:44 | 39.77082 | 3.92776 | 26866 ft | 482 kts | 68° |
| 2026-05-05 18:45 | 39.78383 | 3.96800 | 27218 ft | 485 kts | 68° |
| 2026-05-05 18:45 | 39.79690 | 4.00856 | 27564 ft | 488 kts | 68° |
| 2026-05-05 18:45 | 39.81003 | 4.04934 | 27911 ft | 491 kts | 68° |
| 2026-05-05 18:45 | 39.82324 | 4.09040 | 28263 ft | 494 kts | 68° |
| 2026-05-05 18:46 | 39.83203 | 4.11774 | 28483 ft | 496 kts | 68° |
| 2026-05-05 18:46 | 39.84533 | 4.15923 | 28825 ft | 499 kts | 68° |
| 2026-05-05 18:46 | 39.85875 | 4.20098 | 29138 ft | 502 kts | 67° |
| 2026-05-05 18:46 | 39.87481 | 4.24142 | 29510 ft | 504 kts | 59° |
| 2026-05-05 18:47 | 39.89258 | 4.28088 | 29862 ft | 507 kts | 60° |
| 2026-05-05 18:47 | 39.91627 | 4.33357 | 30256 ft | 510 kts | 60° |
| 2026-05-05 18:47 | 39.92837 | 4.36054 | 30446 ft | 512 kts | 60° |
| 2026-05-05 18:47 | 39.94634 | 4.40072 | 30731 ft | 514 kts | 60° |
| 2026-05-05 18:48 | 39.96433 | 4.44107 | 31070 ft | 516 kts | 60° |
| 2026-05-05 18:48 | 39.98239 | 4.48158 | 31415 ft | 516 kts | 60° |
| 2026-05-05 18:48 | 40.00044 | 4.52205 | 31809 ft | 516 kts | 60° |
| 2026-05-05 18:48 | 40.01842 | 4.56242 | 32212 ft | 515 kts | 60° |
| 2026-05-05 18:49 | 40.03640 | 4.60286 | 32614 ft | 514 kts | 60° |
| 2026-05-05 18:49 | 40.05426 | 4.64310 | 33081 ft | 512 kts | 60° |
| 2026-05-05 18:49 | 40.07210 | 4.68327 | 33516 ft | 511 kts | 60° |
| 2026-05-05 18:49 | 40.08991 | 4.72340 | 33838 ft | 511 kts | 60° |
| 2026-05-05 18:50 | 40.12582 | 4.80461 | 33904 ft | 524 kts | 60° |
| 2026-05-05 18:50 | 40.16267 | 4.88811 | 33923 ft | 536 kts | 61° |
| 2026-05-05 18:51 | 40.20003 | 4.97285 | 33881 ft | 539 kts | 61° |
| 2026-05-05 18:51 | 40.23732 | 5.05781 | 33909 ft | 538 kts | 61° |
| 2026-05-05 18:52 | 40.27427 | 5.14225 | 33907 ft | 538 kts | 61° |
| 2026-05-05 18:52 | 40.31142 | 5.22740 | 33915 ft | 538 kts | 61° |
| 2026-05-05 18:53 | 40.34855 | 5.31266 | 33920 ft | 539 kts | 61° |
| 2026-05-05 18:53 | 40.38554 | 5.39799 | 33921 ft | 538 kts | 61° |
| 2026-05-05 18:54 | 40.42252 | 5.48339 | 33928 ft | 538 kts | 61° |
| 2026-05-05 18:54 | 40.45950 | 5.56878 | 33935 ft | 538 kts | 61° |
| 2026-05-05 18:55 | 40.49639 | 5.65448 | 33937 ft | 538 kts | 61° |
| 2026-05-05 18:55 | 40.53311 | 5.74001 | 33912 ft | 537 kts | 62° |
| 2026-05-05 18:56 | 40.56969 | 5.82551 | 33935 ft | 535 kts | 62° |
| 2026-05-05 18:56 | 40.60606 | 5.91087 | 33942 ft | 534 kts | 62° |
| 2026-05-05 18:57 | 40.64237 | 5.99606 | 33938 ft | 533 kts | 62° |
| 2026-05-05 18:57 | 40.67864 | 6.08125 | 33941 ft | 533 kts | 62° |
| 2026-05-05 18:58 | 40.71475 | 6.16640 | 33939 ft | 532 kts | 62° |
| 2026-05-05 18:58 | 40.75068 | 6.25147 | 33956 ft | 531 kts | 62° |
| 2026-05-05 18:59 | 40.78643 | 6.33661 | 33927 ft | 530 kts | 62° |
| 2026-05-05 18:59 | 40.82216 | 6.42190 | 33925 ft | 531 kts | 62° |
| 2026-05-05 19:00 | 40.85787 | 6.50722 | 33906 ft | 531 kts | 62° |
| 2026-05-05 19:00 | 40.89355 | 6.59255 | 33923 ft | 531 kts | 62° |
| 2026-05-05 19:01 | 40.92915 | 6.67798 | 33933 ft | 530 kts | 62° |
| 2026-05-05 19:01 | 40.96462 | 6.76354 | 33959 ft | 531 kts | 63° |
| 2026-05-05 19:02 | 40.99999 | 6.84919 | 33937 ft | 531 kts | 62° |
| 2026-05-05 19:02 | 41.03542 | 6.93503 | 33932 ft | 531 kts | 62° |
| 2026-05-05 19:03 | 41.07079 | 7.02097 | 33934 ft | 531 kts | 62° |
| 2026-05-05 19:03 | 41.10614 | 7.10697 | 33938 ft | 531 kts | 62° |
| 2026-05-05 19:04 | 41.14145 | 7.19316 | 33955 ft | 532 kts | 63° |
| 2026-05-05 19:04 | 41.17662 | 7.27942 | 33953 ft | 532 kts | 63° |
| 2026-05-05 19:05 | 41.21146 | 7.36531 | 33956 ft | 532 kts | 63° |
| 2026-05-05 19:05 | 41.24651 | 7.45186 | 33954 ft | 532 kts | 63° |
| 2026-05-05 19:06 | 41.28160 | 7.53841 | 33952 ft | 532 kts | 63° |
| 2026-05-05 19:06 | 41.31679 | 7.62570 | 33955 ft | 532 kts | 63° |
| 2026-05-05 19:07 | 41.35133 | 7.71202 | 33955 ft | 532 kts | 63° |
| 2026-05-05 19:07 | 41.38770 | 7.79778 | 33959 ft | 533 kts | 54° |
| 2026-05-05 19:08 | 41.41146 | 7.83542 | 33956 ft | 531 kts | 43° |
| 2026-05-05 19:08 | 41.43939 | 7.86742 | 33951 ft | 528 kts | 33° |
| 2026-05-05 19:08 | 41.47051 | 7.89298 | 33954 ft | 523 kts | 22° |
| 2026-05-05 19:08 | 41.50378 | 7.91227 | 33974 ft | 520 kts | 18° |
| 2026-05-05 19:09 | 41.57097 | 7.94837 | 33953 ft | 521 kts | 18° |
| 2026-05-05 19:09 | 41.63831 | 7.98451 | 33927 ft | 521 kts | 18° |
| 2026-05-05 19:10 | 41.70554 | 8.02079 | 33949 ft | 521 kts | 18° |
| 2026-05-05 19:10 | 41.77278 | 8.05734 | 33960 ft | 522 kts | 18° |
| 2026-05-05 19:11 | 41.84008 | 8.09400 | 33956 ft | 522 kts | 18° |
| 2026-05-05 19:11 | 41.90740 | 8.13053 | 33953 ft | 522 kts | 18° |
| 2026-05-05 19:12 | 41.97489 | 8.16736 | 33957 ft | 524 kts | 18° |
| 2026-05-05 19:12 | 42.04243 | 8.20437 | 33943 ft | 525 kts | 18° |
| 2026-05-05 19:13 | 42.11007 | 8.24148 | 33941 ft | 525 kts | 18° |
| 2026-05-05 19:13 | 42.17788 | 8.27864 | 33938 ft | 526 kts | 18° |
| 2026-05-05 19:14 | 42.24578 | 8.31594 | 33932 ft | 527 kts | 18° |
| 2026-05-05 19:14 | 42.31370 | 8.35338 | 33915 ft | 528 kts | 18° |
| 2026-05-05 19:15 | 42.38166 | 8.39109 | 33929 ft | 528 kts | 18° |
| 2026-05-05 19:15 | 42.44962 | 8.42886 | 33938 ft | 528 kts | 18° |
| 2026-05-05 19:16 | 42.51758 | 8.46648 | 33960 ft | 528 kts | 18° |
| 2026-05-05 19:16 | 42.58557 | 8.50423 | 33962 ft | 528 kts | 18° |
| 2026-05-05 19:17 | 42.65345 | 8.54227 | 33965 ft | 528 kts | 18° |
| 2026-05-05 19:17 | 42.72139 | 8.58038 | 33963 ft | 528 kts | 18° |
| 2026-05-05 19:18 | 42.78943 | 8.61840 | 33948 ft | 529 kts | 18° |
| 2026-05-05 19:18 | 42.85751 | 8.65658 | 33940 ft | 529 kts | 18° |
| 2026-05-05 19:19 | 42.92553 | 8.69495 | 33963 ft | 530 kts | 18° |
| 2026-05-05 19:19 | 42.99377 | 8.73352 | 33939 ft | 531 kts | 17° |
| 2026-05-05 19:20 | 43.06196 | 8.77219 | 33956 ft | 530 kts | 17° |
| 2026-05-05 19:20 | 43.13015 | 8.81084 | 33972 ft | 530 kts | 17° |
| 2026-05-05 19:21 | 43.19724 | 8.84912 | 33955 ft | 507 kts | 17° |
| 2026-05-05 19:21 | 43.26140 | 8.88581 | 33958 ft | 496 kts | 17° |
| 2026-05-05 19:22 | 43.32465 | 8.92186 | 33615 ft | 486 kts | 16° |
| 2026-05-05 19:22 | 43.35632 | 8.93621 | 33346 ft | 474 kts | 6° |
| 2026-05-05 19:22 | 43.38842 | 8.94380 | 33077 ft | 462 kts | 357° |
| 2026-05-05 19:23 | 43.42014 | 8.94515 | 32812 ft | 451 kts | 348° |
| 2026-05-05 19:23 | 43.45047 | 8.94078 | 32549 ft | 439 kts | 340° |
| 2026-05-05 19:23 | 43.48015 | 8.93252 | 32293 ft | 434 kts | 339° |
| 2026-05-05 19:23 | 43.50972 | 8.92408 | 32043 ft | 433 kts | 338° |
| 2026-05-05 19:24 | 43.53924 | 8.91573 | 31792 ft | 433 kts | 340° |
| 2026-05-05 19:24 | 43.56924 | 8.91004 | 31534 ft | 436 kts | 344° |
| 2026-05-05 19:24 | 43.59940 | 8.90537 | 31287 ft | 435 kts | 345° |
| 2026-05-05 19:24 | 43.62951 | 8.90122 | 31038 ft | 434 kts | 345° |
| 2026-05-05 19:25 | 43.65948 | 8.89728 | 30791 ft | 432 kts | 345° |
| 2026-05-05 19:25 | 43.68933 | 8.89334 | 30564 ft | 430 kts | 345° |
| 2026-05-05 19:25 | 43.71901 | 8.88932 | 30322 ft | 428 kts | 345° |
| 2026-05-05 19:25 | 43.74863 | 8.88518 | 30077 ft | 426 kts | 345° |
| 2026-05-05 19:26 | 43.77806 | 8.88098 | 29803 ft | 424 kts | 345° |
| 2026-05-05 19:26 | 43.80735 | 8.87677 | 29525 ft | 422 kts | 345° |
| 2026-05-05 19:26 | 43.83653 | 8.87255 | 29239 ft | 421 kts | 345° |
| 2026-05-05 19:26 | 43.86556 | 8.86836 | 28965 ft | 419 kts | 345° |
| 2026-05-05 19:27 | 43.89450 | 8.86417 | 28718 ft | 417 kts | 345° |
| 2026-05-05 19:27 | 43.92336 | 8.85996 | 28454 ft | 417 kts | 345° |
| 2026-05-05 19:27 | 43.95211 | 8.85580 | 28175 ft | 415 kts | 346° |
| 2026-05-05 19:27 | 43.98079 | 8.85168 | 27908 ft | 414 kts | 346° |
| 2026-05-05 19:28 | 44.00942 | 8.84758 | 27642 ft | 412 kts | 346° |
| 2026-05-05 19:28 | 44.03787 | 8.84346 | 27379 ft | 410 kts | 346° |
| 2026-05-05 19:28 | 44.06620 | 8.83932 | 27122 ft | 409 kts | 346° |
| 2026-05-05 19:28 | 44.09447 | 8.83519 | 26886 ft | 408 kts | 346° |
| 2026-05-05 19:29 | 44.12268 | 8.83107 | 26635 ft | 407 kts | 346° |
| 2026-05-05 19:29 | 44.15081 | 8.82699 | 26380 ft | 406 kts | 346° |
| 2026-05-05 19:29 | 44.17870 | 8.82299 | 26065 ft | 402 kts | 347° |
| 2026-05-05 19:29 | 44.20649 | 8.81900 | 25629 ft | 401 kts | 347° |
| 2026-05-05 19:30 | 44.23427 | 8.81494 | 25189 ft | 401 kts | 347° |
| 2026-05-05 19:30 | 44.26197 | 8.81084 | 24741 ft | 401 kts | 347° |
| 2026-05-05 19:30 | 44.28031 | 8.80812 | 24448 ft | 401 kts | 348° |
| 2026-05-05 19:30 | 44.30813 | 8.80401 | 23984 ft | 402 kts | 348° |
| 2026-05-05 19:31 | 44.33592 | 8.79993 | 23515 ft | 402 kts | 348° |
| 2026-05-05 19:31 | 44.36380 | 8.79586 | 22991 ft | 402 kts | 348° |
| 2026-05-05 19:31 | 44.39151 | 8.79183 | 22524 ft | 400 kts | 349° |
| 2026-05-05 19:31 | 44.41914 | 8.78783 | 22055 ft | 398 kts | 349° |
| 2026-05-05 19:32 | 44.44664 | 8.78384 | 21585 ft | 396 kts | 349° |
| 2026-05-05 19:32 | 44.47397 | 8.77982 | 21120 ft | 395 kts | 349° |
| 2026-05-05 19:32 | 44.50128 | 8.77672 | 20653 ft | 397 kts | 357° |
| 2026-05-05 19:32 | 44.52858 | 8.78363 | 20196 ft | 403 kts | 18° |
| 2026-05-05 19:33 | 44.55299 | 8.80274 | 19750 ft | 403 kts | 39° |
| 2026-05-05 19:33 | 44.57380 | 8.82884 | 19323 ft | 401 kts | 43° |
| 2026-05-05 19:33 | 44.59402 | 8.85573 | 18890 ft | 399 kts | 44° |
| 2026-05-05 19:33 | 44.61409 | 8.88263 | 18465 ft | 398 kts | 44° |
| 2026-05-05 19:34 | 44.63402 | 8.90934 | 18010 ft | 395 kts | 44° |
| 2026-05-05 19:34 | 44.65382 | 8.93594 | 17542 ft | 392 kts | 44° |
| 2026-05-05 19:34 | 44.67343 | 8.96240 | 17052 ft | 389 kts | 44° |
| 2026-05-05 19:35 | 44.71210 | 9.01469 | 16131 ft | 383 kts | 44° |
| 2026-05-05 19:35 | 44.73117 | 9.04072 | 15600 ft | 382 kts | 44° |
| 2026-05-05 19:35 | 44.75025 | 9.06688 | 14982 ft | 384 kts | 44° |
| 2026-05-05 19:35 | 44.77077 | 9.09071 | 14444 ft | 381 kts | 29° |
| 2026-05-05 19:36 | 44.79467 | 9.10502 | 14208 ft | 366 kts | 11° |
| 2026-05-05 19:36 | 44.81937 | 9.10896 | 13968 ft | 351 kts | 353° |
| 2026-05-05 19:36 | 44.84272 | 9.10303 | 13738 ft | 334 kts | 337° |
| 2026-05-05 19:36 | 44.86312 | 9.08893 | 13464 ft | 321 kts | 321° |
| 2026-05-05 19:37 | 44.87977 | 9.06849 | 12882 ft | 318 kts | 306° |
| 2026-05-05 19:37 | 44.89190 | 9.04257 | 12246 ft | 317 kts | 291° |
| 2026-05-05 19:37 | 44.89924 | 9.01379 | 11995 ft | 307 kts | 284° |
| 2026-05-05 19:37 | 44.90584 | 8.98579 | 11954 ft | 294 kts | 285° |
| 2026-05-05 19:38 | 44.91238 | 8.95878 | 11963 ft | 290 kts | 285° |
| 2026-05-05 19:38 | 44.91887 | 8.93222 | 11962 ft | 290 kts | 285° |
| 2026-05-05 19:38 | 44.92553 | 8.90498 | 11959 ft | 290 kts | 285° |
| 2026-05-05 19:38 | 44.93207 | 8.87814 | 11969 ft | 290 kts | 285° |
| 2026-05-05 19:39 | 44.93856 | 8.85125 | 11967 ft | 290 kts | 285° |
| 2026-05-05 19:39 | 44.94500 | 8.82434 | 11971 ft | 289 kts | 285° |
| 2026-05-05 19:39 | 44.95140 | 8.79750 | 11977 ft | 288 kts | 285° |
| 2026-05-05 19:39 | 44.95770 | 8.77101 | 11965 ft | 289 kts | 285° |
| 2026-05-05 19:40 | 44.96413 | 8.74404 | 11968 ft | 290 kts | 285° |
| 2026-05-05 19:40 | 44.97055 | 8.71707 | 11968 ft | 290 kts | 285° |
| 2026-05-05 19:40 | 44.97695 | 8.69010 | 11967 ft | 290 kts | 285° |
| 2026-05-05 19:40 | 44.98336 | 8.66309 | 11929 ft | 291 kts | 285° |
| 2026-05-05 19:41 | 44.98998 | 8.63616 | 11670 ft | 290 kts | 290° |
| 2026-05-05 19:41 | 45.00044 | 8.61179 | 11416 ft | 293 kts | 307° |
| 2026-05-05 19:41 | 45.01561 | 8.59247 | 11172 ft | 297 kts | 324° |
| 2026-05-05 19:41 | 45.03438 | 8.58002 | 10924 ft | 301 kts | 341° |
| 2026-05-05 19:42 | 45.05490 | 8.57396 | 10682 ft | 302 kts | 347° |
| 2026-05-05 19:42 | 45.07550 | 8.56838 | 10436 ft | 301 kts | 347° |
| 2026-05-05 19:42 | 45.09596 | 8.56276 | 10198 ft | 298 kts | 347° |
| 2026-05-05 19:42 | 45.11595 | 8.55723 | 9999 ft | 284 kts | 347° |
| 2026-05-05 19:43 | 45.13468 | 8.55206 | 9878 ft | 265 kts | 347° |
| 2026-05-05 19:43 | 45.15224 | 8.54720 | 9730 ft | 250 kts | 347° |
| 2026-05-05 19:43 | 45.16904 | 8.54255 | 9566 ft | 243 kts | 346° |
| 2026-05-05 19:43 | 45.18549 | 8.53797 | 9290 ft | 240 kts | 346° |
| 2026-05-05 19:44 | 45.20175 | 8.53342 | 9093 ft | 238 kts | 347° |
| 2026-05-05 19:44 | 45.21800 | 8.52888 | 8956 ft | 239 kts | 347° |
| 2026-05-05 19:44 | 45.23431 | 8.52432 | 8700 ft | 237 kts | 347° |
| 2026-05-05 19:44 | 45.25046 | 8.51981 | 8471 ft | 236 kts | 347° |
| 2026-05-05 19:45 | 45.26655 | 8.51533 | 8245 ft | 235 kts | 347° |
| 2026-05-05 19:45 | 45.28258 | 8.51085 | 8029 ft | 234 kts | 347° |
| 2026-05-05 19:45 | 45.29855 | 8.50695 | 7802 ft | 233 kts | 357° |
| 2026-05-05 19:45 | 45.31384 | 8.51067 | 7584 ft | 232 kts | 24° |
| 2026-05-05 19:46 | 45.32711 | 8.52438 | 7357 ft | 230 kts | 52° |
| 2026-05-05 19:46 | 45.33444 | 8.54414 | 7125 ft | 227 kts | 79° |
| 2026-05-05 19:46 | 45.33756 | 8.56618 | 6896 ft | 228 kts | 82° |
| 2026-05-05 19:46 | 45.34058 | 8.58829 | 6664 ft | 227 kts | 81° |
| 2026-05-05 19:47 | 45.34359 | 8.61023 | 6435 ft | 226 kts | 81° |
| 2026-05-05 19:47 | 45.34459 | 8.63191 | 6200 ft | 220 kts | 103° |
| 2026-05-05 19:47 | 45.33875 | 8.65171 | 6050 ft | 215 kts | 131° |
| 2026-05-05 19:47 | 45.32752 | 8.66506 | 6013 ft | 211 kts | 157° |
| 2026-05-05 19:48 | 45.31347 | 8.67070 | 6012 ft | 211 kts | 171° |
| 2026-05-05 19:48 | 45.29927 | 8.67455 | 6009 ft | 211 kts | 170° |
| 2026-05-05 19:48 | 45.28484 | 8.67851 | 5994 ft | 210 kts | 170° |
| 2026-05-05 19:48 | 45.27053 | 8.68247 | 5686 ft | 209 kts | 170° |
| 2026-05-05 19:49 | 45.25627 | 8.68641 | 5371 ft | 209 kts | 170° |
| 2026-05-05 19:49 | 45.24663 | 8.68908 | 5150 ft | 209 kts | 169° |
| 2026-05-05 19:49 | 45.22787 | 8.69428 | 4774 ft | 206 kts | 170° |
| 2026-05-05 19:49 | 45.21381 | 8.69815 | 4474 ft | 205 kts | 169° |
| 2026-05-05 19:50 | 45.19979 | 8.70200 | 4156 ft | 205 kts | 169° |
| 2026-05-05 19:50 | 45.18589 | 8.70582 | 3989 ft | 204 kts | 169° |
| 2026-05-05 19:50 | 45.17188 | 8.70964 | 3979 ft | 206 kts | 169° |
| 2026-05-05 19:50 | 45.15783 | 8.71348 | 3980 ft | 206 kts | 169° |
| 2026-05-05 19:51 | 45.14372 | 8.71734 | 3981 ft | 207 kts | 169° |
| 2026-05-05 19:51 | 45.12958 | 8.72120 | 3981 ft | 207 kts | 169° |
| 2026-05-05 19:51 | 45.11542 | 8.72509 | 3986 ft | 207 kts | 169° |
| 2026-05-05 19:51 | 45.10129 | 8.72897 | 3981 ft | 207 kts | 169° |
| 2026-05-05 19:52 | 45.08718 | 8.73312 | 3981 ft | 207 kts | 162° |
| 2026-05-05 19:52 | 45.07554 | 8.74447 | 3981 ft | 208 kts | 126° |
| 2026-05-05 19:52 | 45.07084 | 8.76370 | 3981 ft | 212 kts | 90° |
| 2026-05-05 19:52 | 45.07431 | 8.78367 | 3983 ft | 215 kts | 68° |
| 2026-05-05 19:53 | 45.08202 | 8.80199 | 3979 ft | 216 kts | 43° |
| 2026-05-05 19:53 | 45.09494 | 8.81226 | 3982 ft | 219 kts | 18° |
| 2026-05-05 19:53 | 45.10962 | 8.81817 | 3981 ft | 220 kts | 14° |
| 2026-05-05 19:53 | 45.12450 | 8.82336 | 3981 ft | 220 kts | 14° |
| 2026-05-05 19:54 | 45.13936 | 8.82841 | 3981 ft | 220 kts | 13° |
| 2026-05-05 19:54 | 45.15424 | 8.83347 | 3982 ft | 220 kts | 14° |
| 2026-05-05 19:54 | 45.16913 | 8.83853 | 3982 ft | 220 kts | 14° |
| 2026-05-05 19:54 | 45.18400 | 8.84357 | 3981 ft | 220 kts | 14° |
| 2026-05-05 19:55 | 45.19887 | 8.84860 | 3980 ft | 220 kts | 13° |
| 2026-05-05 19:55 | 45.21374 | 8.85364 | 3980 ft | 220 kts | 14° |
| 2026-05-05 19:55 | 45.22876 | 8.85762 | 3977 ft | 220 kts | 360° |
| 2026-05-05 19:55 | 45.24354 | 8.85303 | 3979 ft | 219 kts | 334° |
| 2026-05-05 19:56 | 45.25724 | 8.84360 | 4003 ft | 219 kts | 333° |
| 2026-05-05 19:56 | 45.27099 | 8.83431 | 4001 ft | 219 kts | 339° |
| 2026-05-05 19:56 | 45.28560 | 8.82830 | 4003 ft | 219 kts | 347° |
| 2026-05-05 19:56 | 45.30052 | 8.82395 | 4004 ft | 219 kts | 349° |
| 2026-05-05 19:57 | 45.31546 | 8.81989 | 4003 ft | 219 kts | 349° |
| 2026-05-05 19:57 | 45.32539 | 8.81719 | 4004 ft | 219 kts | 349° |
| 2026-05-05 19:57 | 45.34539 | 8.81174 | 4006 ft | 219 kts | 349° |
| 2026-05-05 19:57 | 45.36030 | 8.80766 | 4006 ft | 219 kts | 349° |
| 2026-05-05 19:58 | 45.37530 | 8.80356 | 4007 ft | 219 kts | 349° |
| 2026-05-05 19:58 | 45.39025 | 8.79947 | 4006 ft | 219 kts | 349° |
| 2026-05-05 19:58 | 45.40520 | 8.79538 | 4006 ft | 219 kts | 349° |
| 2026-05-05 19:58 | 45.42015 | 8.79128 | 4005 ft | 219 kts | 349° |
| 2026-05-05 19:59 | 45.43509 | 8.78719 | 4008 ft | 219 kts | 349° |
| 2026-05-05 19:59 | 45.44995 | 8.78311 | 3954 ft | 216 kts | 349° |
| 2026-05-05 19:59 | 45.46445 | 8.77913 | 3786 ft | 208 kts | 349° |
| 2026-05-05 19:59 | 45.47856 | 8.77526 | 3496 ft | 205 kts | 349° |
| 2026-05-05 20:00 | 45.49234 | 8.77147 | 3219 ft | 197 kts | 350° |
| 2026-05-05 20:00 | 45.50539 | 8.76789 | 2965 ft | 187 kts | 350° |
| 2026-05-05 20:00 | 45.51808 | 8.76440 | 2728 ft | 184 kts | 350° |
| 2026-05-05 20:00 | 45.53052 | 8.76098 | 2479 ft | 182 kts | 351° |
| 2026-05-05 20:01 | 45.54265 | 8.75764 | 2264 ft | 179 kts | 351° |
| 2026-05-05 20:01 | 45.55489 | 8.75427 | 2001 ft | 174 kts | 351° |
| 2026-05-05 20:01 | 45.56615 | 8.75116 | 1767 ft | 154 kts | 351° |
| 2026-05-05 20:01 | 45.57621 | 8.74839 | 1552 ft | 145 kts | 350° |
| 2026-05-05 20:02 | 45.58599 | 8.74570 | 1358 ft | 140 kts | 350° |
| 2026-05-05 20:02 | 45.59546 | 8.74309 | 1160 ft | 138 kts | 349° |
| 2026-05-05 20:02 | 45.60482 | 8.74051 | 969 ft | 136 kts | 348° |
| 2026-05-05 20:02 | 45.61407 | 8.73795 | 809 ft | 135 kts | 349° |
| 2026-05-05 20:03 | 45.62313 | 8.73541 | 743 ft | 123 kts | 349° |
| 2026-05-05 20:03 | 45.62918 | 8.73372 | 741 ft | 58 kts | 348° |
| 2026-05-05 20:03 | 45.63132 | 8.73256 | 741 ft | 11 kts | 313° |
| 2026-05-05 20:03 | 45.63154 | 8.73226 | 741 ft | 6 kts | 314° |
| 2026-05-05 20:04 | 45.63197 | 8.73162 | 741 ft | 22 kts | 313° |
| 2026-05-05 20:04 | 45.63313 | 8.72960 | 741 ft | 25 kts | 307° |
| 2026-05-05 20:04 | 45.63396 | 8.72760 | 741 ft | 22 kts | 284° |
| 2026-05-05 20:04 | 45.63394 | 8.72630 | 741 ft | 12 kts | 276° |
| 2026-05-05 20:05 | 45.63394 | 8.72489 | 741 ft | 16 kts | 261° |
| 2026-05-05 20:05 | 45.63376 | 8.72372 | 741 ft | 9 kts | 255° |
| 2026-05-05 20:05 | 45.63356 | 8.72269 | 740 ft | 12 kts | 255° |
| 2026-05-05 20:05 | 45.63333 | 8.72136 | 741 ft | 16 kts | 259° |
| 2026-05-05 20:06 | 45.63316 | 8.71965 | 741 ft | 16 kts | 265° |
| 2026-05-05 20:06 | 45.63315 | 8.71933 | 741 ft | 0 kts | 265° |
| 2026-05-05 20:06 | 45.63315 | 8.71931 | 741 ft | 1 kts | 265° |
| 2026-05-05 20:07 | 45.63304 | 8.71923 | 741 ft | 4 kts | 181° |
| 2026-05-05 20:07 | 45.63268 | 8.71953 | 741 ft | 7 kts | 156° |
| 2026-05-05 20:07 | 45.63213 | 8.71984 | 740 ft | 11 kts | 165° |
| 2026-05-05 20:07 | 45.63128 | 8.72011 | 741 ft | 14 kts | 167° |
| 2026-05-05 20:08 | 45.63027 | 8.72037 | 741 ft | 16 kts | 171° |
| 2026-05-05 20:08 | 45.62908 | 8.72067 | 741 ft | 19 kts | 169° |
| 2026-05-05 20:08 | 45.62770 | 8.72104 | 741 ft | 22 kts | 169° |
| 2026-05-05 20:08 | 45.62663 | 8.72108 | 740 ft | 10 kts | 238° |
| 2026-05-05 20:09 | 45.62659 | 8.71997 | 741 ft | 12 kts | 271° |
| 2026-05-05 20:09 | 45.62654 | 8.71863 | 739 ft | 15 kts | 261° |
| 2026-05-05 20:09 | 45.62635 | 8.71703 | 741 ft | 18 kts | 256° |
| 2026-05-05 20:09 | 45.62611 | 8.71527 | 739 ft | 14 kts | 277° |
| 2026-05-05 20:10 | 45.62673 | 8.71488 | 741 ft | 7 kts | 10° |
| 2026-05-05 20:10 | 45.62690 | 8.71493 | 741 ft | 0 kts | 13° |